Date,TemperatureHighF,TemperatureAvgF,TemperatureLowF,DewpointHighF,DewpointAvgF,DewpointLowF,HumidityHigh,HumidityAvg,HumidityLow,PressureMaxIn,PressureMinIn,WindSpeedMaxMPH,WindSpeedAvgMPH,GustSpeedMaxMPH,PrecipitationSumIn
2013-9-6,97,89,76,65,62,56,65,41,27,29.98,29.81,21,8,21,0.00
2013-9-7,102,87,73,66,62,56,74,47,23,29.86,29.75,20,6,20,0.00
2013-9-8,101,87,75,65,61,54,63,43,23,29.79,29.68,21,6,21,0.00
2013-9-9,95,84,73,62,57,50,62,42,23,29.79,29.71,34,9,34,0.00
2013-9-10,95,84,73,63,59,55,62,44,29,29.94,29.79,30,10,30,0.00
2013-9-11,93,80,71,69,62,56,91,56,33,30.04,29.89,29,6,29,0.09
2013-9-12,78,72,69,69,67,60,93,85,70,30.11,30.01,14,3,14,0.58
2013-9-13,72,68,63,60,52,47,73,57,41,30.13,29.97,19,5,19,0.05
2013-9-14,82,70,59,62,55,49,76,59,41,29.99,29.79,22,7,22,0.04
2013-9-15,81,72,63,67,62,57,81,70,57,30.10,29.80,28,8,28,0.03
2013-9-16,63,61,59,60,58,56,95,90,80,30.16,30.07,22,6,22,0.03
2013-9-17,84,71,62,67,64,60,95,81,56,30.11,29.80,27,9,27,0.17
2013-9-18,93,81,71,67,64,57,82,59,32,29.83,29.63,39,12,39,0.00
2013-9-19,87,77,68,67,61,51,66,58,45,29.95,29.68,27,10,27,0.00
2013-9-20,75,64,56,53,48,43,84,58,32,30.08,29.93,19,5,19,0.00
2013-9-21,85,68,52,52,48,40,85,55,22,29.97,29.78,19,4,19,0.00
2013-9-22,81,70,58,52,48,41,79,50,28,29.83,29.68,28,10,31,0.00
2013-9-23,80,69,57,51,49,45,73,50,32,29.72,29.55,38,13,38,0.00
2013-9-24,74,67,60,55,54,51,77,63,48,29.84,29.65,30,9,30,0.00
2013-9-25,83,68,53,58,53,49,91,64,32,29.86,29.62,27,6,27,0.00
2013-9-26,92,78,65,60,55,51,73,48,26,29.66,29.57,41,15,41,0.00
2013-9-27,88,79,71,62,57,54,57,47,35,29.72,29.61,36,14,36,0.00
2013-9-28,78,63,53,67,48,37,91,60,32,30.04,29.58,29,8,29,0.37
2013-9-29,78,61,46,47,42,32,86,55,21,30.05,29.84,18,4,18,0.01
2013-9-30,83,66,52,52,48,44,85,56,27,29.85,29.68,20,6,24,0.00